createdAt,value
2023-03-26T00:01:25.118Z,5.97
2023-03-26T00:03:57.719Z,5.98
2023-03-26T00:06:36.863Z,5.98
2023-03-26T00:09:05.427Z,6.02
2023-03-26T00:11:32.216Z,6.05
2023-03-26T00:13:59.199Z,6.05
2023-03-26T00:16:29.976Z,6.06
2023-03-26T00:18:57.900Z,6.07
2023-03-26T00:21:29.342Z,6.07
2023-03-26T00:23:59.785Z,6.05
2023-03-26T00:26:29.765Z,6.08
2023-03-26T00:28:57.809Z,6.10
2023-03-26T00:31:24.790Z,6.08
2023-03-26T00:33:56.023Z,6.08
2023-03-26T00:36:28.363Z,6.08
2023-03-26T00:38:55.587Z,6.10
2023-03-26T00:41:31.092Z,6.13
2023-03-26T00:43:59.546Z,6.15
2023-03-26T00:46:29.152Z,6.19
2023-03-26T00:48:59.918Z,6.21
2023-03-26T00:51:28.201Z,6.23
2023-03-26T00:53:55.893Z,6.26
2023-03-26T00:56:22.879Z,6.24
2023-03-26T00:58:50.369Z,6.27
2023-03-26T01:01:28.654Z,6.26
2023-03-26T01:04:08.718Z,6.28
2023-03-26T01:06:41.491Z,6.27
2023-03-26T01:09:15.915Z,6.25
2023-03-26T01:11:43.203Z,6.26
2023-03-26T01:14:30.374Z,6.21
2023-03-26T01:17:02.700Z,6.20
2023-03-26T01:19:58.860Z,6.18
2023-03-26T01:22:27.151Z,6.19
2023-03-26T01:24:56.741Z,6.19
2023-03-26T01:27:34.288Z,6.18
2023-03-26T01:30:42.416Z,6.18
2023-03-26T01:33:36.657Z,6.20
2023-03-26T01:36:17.880Z,6.19
2023-03-26T01:39:04.021Z,6.18
2023-03-26T01:41:51.747Z,6.16
2023-03-26T01:44:50.323Z,6.18
2023-03-26T01:47:17.933Z,6.20
2023-03-26T01:49:44.781Z,6.19
2023-03-26T01:52:25.170Z,6.20
2023-03-26T01:54:54.497Z,6.22
2023-03-26T01:57:50.415Z,6.23
2023-03-26T02:00:34.216Z,6.27
2023-03-26T02:03:35.056Z,6.29
2023-03-26T02:06:11.382Z,6.32
2023-03-26T02:08:47.031Z,6.36
2023-03-26T02:11:16.504Z,6.35
2023-03-26T02:13:45.435Z,6.38
2023-03-26T02:16:16.507Z,6.40
2023-03-26T02:18:45.272Z,6.43
2023-03-26T02:21:20.123Z,6.44
2023-03-26T02:23:50.836Z,6.45
2023-03-26T02:26:19.873Z,6.43
2023-03-26T02:28:58.959Z,6.43
2023-03-26T02:31:30.323Z,6.43
2023-03-26T02:33:57.453Z,6.44
2023-03-26T02:36:29.988Z,6.47
2023-03-26T02:39:00.561Z,6.48
2023-03-26T02:41:30.453Z,6.48
2023-03-26T02:44:01.352Z,6.50
2023-03-26T02:46:48.166Z,6.47
2023-03-26T02:49:35.151Z,6.46
2023-03-26T02:52:06.562Z,6.48
2023-03-26T02:54:35.711Z,6.47
2023-03-26T02:57:20.297Z,6.48
2023-03-26T03:00:09.163Z,6.46
2023-03-26T03:02:48.443Z,6.48
2023-03-26T03:05:38.134Z,6.52
2023-03-26T03:08:19.402Z,6.55
2023-03-26T03:11:11.921Z,6.53
2023-03-26T03:13:45.582Z,6.55
2023-03-26T03:16:16.587Z,6.57
2023-03-26T03:18:43.735Z,6.57
2023-03-26T03:21:10.965Z,6.52
2023-03-26T03:23:37.857Z,6.50
2023-03-26T03:26:16.662Z,6.47
2023-03-26T03:28:50.804Z,6.46
2023-03-26T03:31:18.179Z,6.45
2023-03-26T03:33:46.515Z,6.45
2023-03-26T03:36:22.066Z,6.45
2023-03-26T03:39:02.460Z,6.47
2023-03-26T03:41:30.354Z,6.50
2023-03-26T03:43:59.925Z,6.52
2023-03-26T03:46:30.978Z,6.54
2023-03-26T03:48:58.193Z,6.55
2023-03-26T03:51:29.885Z,6.59
2023-03-26T03:53:59.892Z,6.62
2023-03-26T03:56:47.368Z,6.61
2023-03-26T03:59:34.227Z,6.61
2023-03-26T04:02:04.472Z,6.61
2023-03-26T04:04:38.199Z,6.62
2023-03-26T04:07:08.641Z,6.61
2023-03-26T04:09:56.192Z,6.63
2023-03-26T04:12:24.928Z,6.65
2023-03-26T04:14:58.569Z,6.64
2023-03-26T04:17:26.020Z,6.63
2023-03-26T04:19:55.479Z,6.62
2023-03-26T04:22:36.577Z,6.63
2023-03-26T04:25:07.692Z,6.64
2023-03-26T04:27:44.529Z,6.66
2023-03-26T04:30:23.306Z,6.69
2023-03-26T04:33:15.368Z,6.67
2023-03-26T04:35:46.017Z,6.70
2023-03-26T04:38:16.842Z,6.72
2023-03-26T04:40:49.768Z,6.72
2023-03-26T04:43:36.590Z,6.73
2023-03-26T04:46:23.649Z,6.74
2023-03-26T04:49:01.237Z,6.75
2023-03-26T04:51:38.252Z,6.72
2023-03-26T04:54:14.515Z,6.70
2023-03-26T04:57:00.209Z,6.67
2023-03-26T04:59:37.200Z,6.67
2023-03-26T05:02:09.680Z,6.67
2023-03-26T05:04:48.533Z,6.68
2023-03-26T05:07:22.455Z,6.66
2023-03-26T05:09:52.817Z,6.66
2023-03-26T05:12:31.184Z,6.65
2023-03-26T05:15:04.386Z,6.62
2023-03-26T05:17:51.646Z,6.57
2023-03-26T05:20:38.471Z,6.54
2023-03-26T05:23:08.106Z,6.52
2023-03-26T05:25:37.944Z,6.50
2023-03-26T05:28:12.204Z,6.45
2023-03-26T05:30:48.097Z,6.41
2023-03-26T05:33:16.439Z,6.42
2023-03-26T05:36:07.179Z,6.42
2023-03-26T05:38:34.228Z,6.47
2023-03-26T05:41:08.160Z,6.49
2023-03-26T05:43:37.312Z,6.49
2023-03-26T05:46:11.936Z,6.51
2023-03-26T05:48:39.315Z,6.55
2023-03-26T05:51:07.042Z,6.63
2023-03-26T05:53:34.526Z,6.71
2023-03-26T05:56:21.273Z,6.81
2023-03-26T05:59:08.159Z,6.89
2023-03-26T06:01:54.915Z,6.95
2023-03-26T06:04:42.600Z,6.98
2023-03-26T06:07:29.584Z,7.00
2023-03-26T06:10:17.942Z,7.02
2023-03-26T06:12:46.227Z,7.04
2023-03-26T06:15:13.325Z,7.03
2023-03-26T06:18:00.129Z,7.10
2023-03-26T06:20:47.325Z,7.14
2023-03-26T06:23:25.354Z,7.14
2023-03-26T06:26:06.605Z,7.16
2023-03-26T06:28:53.356Z,7.18
2023-03-26T06:31:41.309Z,7.17
2023-03-26T06:34:16.507Z,7.11
2023-03-26T06:36:43.620Z,7.05
2023-03-26T06:39:10.482Z,6.99
2023-03-26T06:41:45.720Z,7.00
2023-03-26T06:44:23.311Z,7.09
2023-03-26T06:47:10.446Z,7.16
2023-03-26T06:49:57.246Z,7.15
2023-03-26T06:52:35.178Z,7.11
2023-03-26T06:55:22.611Z,7.15
2023-03-26T06:58:11.668Z,7.16
2023-03-26T07:00:58.655Z,7.20
2023-03-26T07:03:45.993Z,7.20
2023-03-26T07:06:32.955Z,7.20
2023-03-26T07:09:19.717Z,7.24
2023-03-26T07:12:06.749Z,7.27
2023-03-26T07:14:53.635Z,7.33
2023-03-26T07:17:40.647Z,7.40
2023-03-26T07:20:16.847Z,7.48
2023-03-26T07:22:45.366Z,7.55
2023-03-26T07:25:29.233Z,7.58
2023-03-26T07:29:04.057Z,7.50
2023-03-26T07:32:01.431Z,7.30
2023-03-26T07:34:47.508Z,7.20
2023-03-26T07:40:51.269Z,7.13
2023-03-26T07:44:17.838Z,7.17
2023-03-26T07:47:22.327Z,7.17
2023-03-26T07:50:16.523Z,7.18
2023-03-26T07:53:05.428Z,7.16
2023-03-26T07:55:54.225Z,7.10
2023-03-26T07:59:07.169Z,7.27
2023-03-26T08:02:14.393Z,7.43
2023-03-26T08:04:58.410Z,7.50
2023-03-26T08:08:25.513Z,7.60
2023-03-26T08:11:50.374Z,7.68
2023-03-26T08:14:39.539Z,7.73
2023-03-26T08:17:23.994Z,7.66
2023-03-26T08:19:58.156Z,7.61
2023-03-26T08:22:31.931Z,7.61
2023-03-26T08:25:17.921Z,7.54
2023-03-26T08:28:00.033Z,7.49
2023-03-26T08:30:27.926Z,7.46
2023-03-26T08:32:57.451Z,7.47
2023-03-26T08:35:25.591Z,7.70
2023-03-26T08:37:53.246Z,7.96
2023-03-26T08:40:40.045Z,8.11
2023-03-26T08:43:24.537Z,8.23
2023-03-26T08:46:19.829Z,8.38
2023-03-26T08:49:27.868Z,8.42
2023-03-26T08:52:28.167Z,8.49
2023-03-26T08:55:15.307Z,8.43
2023-03-26T08:58:22.540Z,8.39
2023-03-26T09:01:27.170Z,8.35
2023-03-26T09:04:21.611Z,8.29
2023-03-26T09:07:28.274Z,8.18
2023-03-26T09:10:26.235Z,8.16
2023-03-26T09:13:32.893Z,8.01
2023-03-26T09:16:39.734Z,7.96
2023-03-26T09:19:46.525Z,8.10
2023-03-26T09:22:29.317Z,8.16
2023-03-26T09:25:39.867Z,8.07
2023-03-26T09:28:46.960Z,7.97
2023-03-26T09:31:58.065Z,7.91
2023-03-26T09:34:34.717Z,7.87
2023-03-26T09:37:56.801Z,7.93
2023-03-26T09:40:42.537Z,7.99
2023-03-26T09:43:49.396Z,7.96
2023-03-26T09:46:47.370Z,8.07
2023-03-26T09:49:36.684Z,7.99
2023-03-26T09:52:20.672Z,7.87
2023-03-26T09:55:22.897Z,7.84
2023-03-26T09:58:21.451Z,7.94
2023-03-26T10:01:15.910Z,8.10
2023-03-26T10:04:17.298Z,8.24
2023-03-26T10:07:24.160Z,8.22
2023-03-26T10:10:30.961Z,8.25
2023-03-26T10:13:26.716Z,8.29
2023-03-26T10:16:25.875Z,8.34
2023-03-26T10:19:07.945Z,8.24
2023-03-26T10:21:47.991Z,8.24
2023-03-26T10:24:42.891Z,8.31
2023-03-26T10:27:49.589Z,8.48
2023-03-26T10:30:36.520Z,8.59
2023-03-26T10:33:28.160Z,8.80
2023-03-26T10:36:23.280Z,8.94
2023-03-26T10:39:36.727Z,9.13
2023-03-26T10:42:36.257Z,9.44
2023-03-26T10:45:14.718Z,9.46
2023-03-26T10:48:21.646Z,9.24
2023-03-26T10:51:24.938Z,8.98
2023-03-26T10:53:56.366Z,8.72
2023-03-26T10:56:46.782Z,8.45
2023-03-26T10:59:15.003Z,8.28
2023-03-26T11:01:50.385Z,8.01
2023-03-26T11:04:47.173Z,7.84
2023-03-26T11:07:39.551Z,7.78
2023-03-26T11:10:16.897Z,7.68
2023-03-26T11:12:58.143Z,7.66
2023-03-26T11:15:30.403Z,7.65
2023-03-26T11:18:24.302Z,7.64
2023-03-26T11:21:18.668Z,7.69
2023-03-26T11:24:21.558Z,7.92
2023-03-26T11:26:58.337Z,8.26
2023-03-26T11:30:00.602Z,8.48
2023-03-26T11:32:40.530Z,8.60
2023-03-26T11:35:40.718Z,8.82
2023-03-26T11:38:20.513Z,8.85
2023-03-26T11:40:51.385Z,8.71
2023-03-26T11:43:36.937Z,8.57
2023-03-26T11:46:07.850Z,8.40
2023-03-26T11:48:44.582Z,8.29
2023-03-26T11:51:16.834Z,8.49
2023-03-26T11:53:46.798Z,8.69
2023-03-26T11:56:31.146Z,8.68
2023-03-26T11:59:18.450Z,8.49
2023-03-26T12:02:17.190Z,8.28
2023-03-26T12:04:45.909Z,8.24
2023-03-26T12:07:24.393Z,8.23
2023-03-26T12:09:56.818Z,8.28
2023-03-26T12:12:30.667Z,8.39
2023-03-26T12:14:59.726Z,8.50
2023-03-26T12:17:37.812Z,8.56
2023-03-26T12:20:33.638Z,8.74
2023-03-26T12:23:02.548Z,8.99
2023-03-26T12:25:33.256Z,9.10
2023-03-26T12:28:18.531Z,9.18
2023-03-26T12:31:05.501Z,9.13
2023-03-26T12:33:34.845Z,9.13
2023-03-26T12:36:24.767Z,9.11
2023-03-26T12:39:16.682Z,8.99
2023-03-26T12:44:43.721Z,8.98
2023-03-26T12:44:53.798Z,8.87
2023-03-26T12:48:00.604Z,8.85
2023-03-26T12:50:14.641Z,8.72
2023-03-26T12:53:15.974Z,8.66
2023-03-26T12:55:52.004Z,8.54
2023-03-26T12:58:58.775Z,8.42
2023-03-26T13:01:47.555Z,8.28
2023-03-26T13:05:05.025Z,8.13
2023-03-26T13:08:03.725Z,7.94
2023-03-26T13:10:56.377Z,7.76
2023-03-26T13:13:50.676Z,7.85
2023-03-26T13:16:47.804Z,8.05
2023-03-26T13:19:23.259Z,8.10
2023-03-26T13:22:07.441Z,8.08
2023-03-26T13:24:58.851Z,8.02
2023-03-26T13:28:00.394Z,7.97
2023-03-26T13:31:07.307Z,7.95
2023-03-26T13:33:41.092Z,8.02
2023-03-26T13:36:31.641Z,8.03
2023-03-26T13:39:21.082Z,8.12
2023-03-26T13:42:23.406Z,8.10
2023-03-26T13:45:30.105Z,8.09
2023-03-26T13:47:59.253Z,8.12
2023-03-26T13:50:31.468Z,8.09
2023-03-26T13:53:07.112Z,8.10
2023-03-26T13:55:44.076Z,8.21
2023-03-26T13:58:24.544Z,8.26
2023-03-26T14:01:07.502Z,8.34
2023-03-26T14:03:48.999Z,8.52
2023-03-26T14:06:57.681Z,8.61
2023-03-26T14:09:52.322Z,8.57
2023-03-26T14:12:49.553Z,8.36
2023-03-26T14:15:29.674Z,8.23
2023-03-26T14:18:32.771Z,8.27
2023-03-26T14:21:29.152Z,8.36
2023-03-26T14:24:35.852Z,8.37
2023-03-26T14:27:36.992Z,8.24
2023-03-26T14:30:33.614Z,8.23
2023-03-26T14:33:27.171Z,8.25
2023-03-26T14:36:11.481Z,8.38
2023-03-26T14:39:01.381Z,8.55
2023-03-26T14:41:50.504Z,8.65
2023-03-26T14:44:57.151Z,8.56
2023-03-26T14:47:24.980Z,8.35
2023-03-26T14:50:35.982Z,8.14
2023-03-26T14:53:10.417Z,7.88
2023-03-26T14:56:17.109Z,7.75
2023-03-26T14:59:23.783Z,7.65
2023-03-26T15:02:30.911Z,7.69
2023-03-26T15:05:27.388Z,7.64
2023-03-26T15:08:34.404Z,7.62
2023-03-26T15:11:22.743Z,7.59
2023-03-26T15:14:20.969Z,7.59
2023-03-26T15:17:16.581Z,7.57
2023-03-26T15:20:26.106Z,7.57
2023-03-26T15:23:24.111Z,7.50
2023-03-26T15:26:31.087Z,7.35
2023-03-26T15:29:08.615Z,7.27
2023-03-26T15:32:07.630Z,7.22
2023-03-26T15:35:14.969Z,7.15
2023-03-26T15:38:20.901Z,7.14
2023-03-26T15:41:17.665Z,7.07
2023-03-26T15:44:22.527Z,6.97
2023-03-26T15:47:17.511Z,6.93
2023-03-26T15:49:55.506Z,6.71
2023-03-26T15:52:28.437Z,6.63
2023-03-26T15:55:22.908Z,6.51
2023-03-26T15:58:18.554Z,6.25
2023-03-26T16:00:56.617Z,6.06
2023-03-26T16:03:41.855Z,5.96
2023-03-26T16:06:30.971Z,5.92
2023-03-26T16:09:29.075Z,5.83
2023-03-26T16:11:58.304Z,5.82
2023-03-26T16:14:46.949Z,5.78
2023-03-26T16:17:17.625Z,5.70
2023-03-26T16:20:14.988Z,5.70
2023-03-26T16:22:56.197Z,5.67
2023-03-26T16:25:33.444Z,5.60
2023-03-26T16:28:28.358Z,5.58
2023-03-26T16:31:37.321Z,5.48
2023-03-26T16:34:26.464Z,5.49
2023-03-26T16:36:54.898Z,5.47
2023-03-26T16:39:24.945Z,5.38
2023-03-26T16:41:56.640Z,5.36
2023-03-26T16:44:44.222Z,5.35
2023-03-26T16:47:25.541Z,5.33
2023-03-26T16:50:16.941Z,5.26
2023-03-26T16:53:09.246Z,5.22
2023-03-26T16:55:48.214Z,5.17
2023-03-26T16:58:33.625Z,5.15
2023-03-26T17:01:43.623Z,5.12
2023-03-26T17:04:17.367Z,5.03
2023-03-26T17:07:16.288Z,4.88
2023-03-26T17:09:55.677Z,4.71
2023-03-26T17:12:44.023Z,4.53
2023-03-26T17:15:42.922Z,4.38
2023-03-26T17:18:42.732Z,4.28
2023-03-26T17:21:16.134Z,4.15
2023-03-26T17:24:15.188Z,4.10
2023-03-26T17:27:00.622Z,3.98
2023-03-26T17:30:07.560Z,3.89
2023-03-26T17:33:14.206Z,3.79
2023-03-26T17:35:45.664Z,3.70
2023-03-26T17:38:52.407Z,3.61
2023-03-26T17:41:49.053Z,3.56
2023-03-26T17:44:37.350Z,3.48
2023-03-26T17:47:07.200Z,3.46
2023-03-26T17:49:35.443Z,3.43
2023-03-26T17:52:12.021Z,3.42
2023-03-26T17:54:44.442Z,3.40
2023-03-26T17:57:20.642Z,3.39
2023-03-26T17:59:51.940Z,3.40
2023-03-26T18:02:24.014Z,3.42
2023-03-26T18:04:53.507Z,3.41
2023-03-26T18:07:57.024Z,3.38
2023-03-26T18:10:56.087Z,3.39
2023-03-26T18:13:49.568Z,3.45
2023-03-26T18:16:24.831Z,3.51
2023-03-26T18:18:55.477Z,3.50
2023-03-26T18:21:43.668Z,3.48
2023-03-26T18:24:15.703Z,3.50
2023-03-26T18:26:49.690Z,3.56
2023-03-26T18:29:26.235Z,3.52
2023-03-26T18:31:57.763Z,3.43
2023-03-26T18:34:26.183Z,3.37
2023-03-26T18:37:17.767Z,3.39
2023-03-26T18:40:02.157Z,3.40
2023-03-26T18:42:30.805Z,3.36
2023-03-26T18:44:59.901Z,3.31
2023-03-26T18:47:29.627Z,3.31
2023-03-26T18:49:57.440Z,3.26
2023-03-26T18:52:24.540Z,3.25
2023-03-26T18:54:56.467Z,3.25
2023-03-26T18:57:27.211Z,3.24
2023-03-26T19:00:09.467Z,3.21
2023-03-26T19:02:39.093Z,3.17
2023-03-26T19:05:15.440Z,3.16
2023-03-26T19:07:44.337Z,3.15
2023-03-26T19:10:21.613Z,3.16
2023-03-26T19:12:57.204Z,3.22
2023-03-26T19:15:28.259Z,3.27
2023-03-26T19:18:14.850Z,3.31
2023-03-26T19:20:59.176Z,3.41
2023-03-26T19:23:33.379Z,3.49
2023-03-26T19:26:07.469Z,3.55
2023-03-26T19:28:41.464Z,3.59
2023-03-26T19:31:21.637Z,3.61
2023-03-26T19:33:56.140Z,3.65
2023-03-26T19:36:32.528Z,3.72
2023-03-26T19:39:24.177Z,3.78
2023-03-26T19:41:59.399Z,3.81
2023-03-26T19:44:29.074Z,3.83
2023-03-26T19:47:04.372Z,3.87
2023-03-26T19:49:34.038Z,3.90
2023-03-26T19:52:22.086Z,3.93
2023-03-26T19:55:24.647Z,3.96
2023-03-26T19:57:54.104Z,4.00
2023-03-26T20:00:22.022Z,4.00
2023-03-26T20:02:49.159Z,4.01
2023-03-26T20:05:27.802Z,3.99
2023-03-26T20:07:57.266Z,4.00
2023-03-26T20:10:24.770Z,4.00
2023-03-26T20:12:51.969Z,4.01
2023-03-26T20:15:23.131Z,4.01
2023-03-26T20:17:52.585Z,4.02
2023-03-26T20:20:19.615Z,3.98
2023-03-26T20:22:47.371Z,3.94
2023-03-26T20:25:20.482Z,3.93
2023-03-26T20:27:47.533Z,3.92
2023-03-26T20:32:45.624Z,3.90
2023-03-26T20:35:37.714Z,3.86
2023-03-26T20:38:06.226Z,3.78
2023-03-26T20:40:33.817Z,3.75
2023-03-26T20:43:01.935Z,3.69
2023-03-26T20:45:29.089Z,3.68
2023-03-26T20:47:55.973Z,3.72
2023-03-26T20:50:23.364Z,3.74
2023-03-26T20:52:50.665Z,3.75
2023-03-26T20:55:21.836Z,3.71
2023-03-26T20:57:49.113Z,3.64
2023-03-26T21:00:22.697Z,3.61
2023-03-26T21:02:53.968Z,3.54
2023-03-26T21:05:24.597Z,3.48
2023-03-26T21:07:53.396Z,3.43
2023-03-26T21:10:21.170Z,3.44
2023-03-26T21:12:58.346Z,3.41
2023-03-26T21:15:26.505Z,3.40
2023-03-26T21:17:55.002Z,3.43
2023-03-26T21:20:23.609Z,3.48
2023-03-26T21:23:16.248Z,3.53
2023-03-26T21:26:07.271Z,3.59
2023-03-26T21:28:47.281Z,3.64
2023-03-26T21:31:20.277Z,3.67
2023-03-26T21:33:49.376Z,3.72
2023-03-26T21:36:18.279Z,3.75
2023-03-26T21:38:46.016Z,3.79
2023-03-26T21:41:31.461Z,3.80
2023-03-26T21:43:59.890Z,3.84
2023-03-26T21:46:27.163Z,3.87
2023-03-26T21:48:54.393Z,3.80
2023-03-26T21:51:21.556Z,3.75
2023-03-26T21:53:49.032Z,3.66
2023-03-26T21:56:50.481Z,3.60
2023-03-26T21:59:51.406Z,3.60
2023-03-26T22:02:44.341Z,3.57
2023-03-26T22:05:26.021Z,3.54
2023-03-26T22:08:04.716Z,3.53
2023-03-26T22:10:32.123Z,3.49
2023-03-26T22:12:59.727Z,3.45
2023-03-26T22:15:30.534Z,3.41
2023-03-26T22:18:02.200Z,3.35
2023-03-26T22:20:29.617Z,3.34
2023-03-26T22:22:56.833Z,3.29
2023-03-26T22:25:24.144Z,3.27
2023-03-26T22:27:51.832Z,3.28
2023-03-26T22:30:20.914Z,3.26
2023-03-26T22:32:48.788Z,3.28
2023-03-26T22:35:16.275Z,3.28
2023-03-26T22:37:43.215Z,3.23
2023-03-26T22:40:12.982Z,3.28
2023-03-26T22:42:40.571Z,3.30
2023-03-26T22:45:09.257Z,3.29
2023-03-26T22:47:36.275Z,3.31
2023-03-26T22:50:06.075Z,3.34
2023-03-26T22:52:34.001Z,3.32
2023-03-26T22:55:00.851Z,3.30
2023-03-26T22:57:27.977Z,3.31
2023-03-26T22:59:54.770Z,3.32
2023-03-26T23:02:22.092Z,3.32
2023-03-26T23:04:49.059Z,3.31
2023-03-26T23:07:15.951Z,3.30
2023-03-26T23:09:42.748Z,3.29
2023-03-26T23:12:09.691Z,3.27
2023-03-26T23:14:36.461Z,3.25
2023-03-26T23:17:03.740Z,3.21
2023-03-26T23:19:30.647Z,3.16
2023-03-26T23:21:57.623Z,3.13
2023-03-26T23:24:26.585Z,3.10
2023-03-26T23:26:53.484Z,3.05
2023-03-26T23:29:20.307Z,3.03
2023-03-26T23:31:47.691Z,2.97
2023-03-26T23:34:16.355Z,2.96
2023-03-26T23:36:44.710Z,2.96
2023-03-26T23:39:20.641Z,2.93
2023-03-26T23:41:48.119Z,2.93
2023-03-26T23:44:17.042Z,2.92
2023-03-26T23:46:44.271Z,2.86
2023-03-26T23:49:12.158Z,2.84
2023-03-26T23:51:39.044Z,2.81
2023-03-26T23:54:06.693Z,2.81
2023-03-26T23:56:33.504Z,2.72
2023-03-26T23:59:00.743Z,2.63
